sensor_id;sensor_type;location;lat;lon;timestamp;temperature;humidity
364;DHT22;173;48.718;9.274;2023-06-22T10:04:57;29.30;66.90
364;DHT22;173;48.718;9.274;2023-06-22T10:07:30;33.40;57.80
364;DHT22;173;48.718;9.274;2023-06-22T10:10:02;33.40;55.80
364;DHT22;173;48.718;9.274;2023-06-22T10:12:34;33.00;57.30
364;DHT22;173;48.718;9.274;2023-06-22T10:15:09;32.80;58.70
364;DHT22;173;48.718;9.274;2023-06-22T10:17:41;32.70;61.20
364;DHT22;173;48.718;9.274;2023-06-22T10:20:15;32.70;60.60
364;DHT22;173;48.718;9.274;2023-06-22T10:22:48;32.60;58.60
364;DHT22;173;48.718;9.274;2023-06-22T10:25:21;32.30;60.20
364;DHT22;173;48.718;9.274;2023-06-22T10:27:53;32.60;60.30
364;DHT22;173;48.718;9.274;2023-06-22T10:30:26;32.90;58.90
364;DHT22;173;48.718;9.274;2023-06-22T10:32:58;33.20;57.20
364;DHT22;173;48.718;9.274;2023-06-22T10:35:30;33.30;56.80
364;DHT22;173;48.718;9.274;2023-06-22T10:38:01;33.20;59.00
364;DHT22;173;48.718;9.274;2023-06-22T10:40:34;33.40;58.30
364;DHT22;173;48.718;9.274;2023-06-22T10:43:07;33.60;58.70
364;DHT22;173;48.718;9.274;2023-06-22T10:45:39;33.60;56.60
364;DHT22;173;48.718;9.274;2023-06-22T10:48:11;33.40;57.00
364;DHT22;173;48.718;9.274;2023-06-22T10:50:43;33.30;59.20
364;DHT22;173;48.718;9.274;2023-06-22T10:53:16;33.60;58.10
364;DHT22;173;48.718;9.274;2023-06-22T10:55:49;33.50;58.00
364;DHT22;173;48.718;9.274;2023-06-22T10:58:22;33.00;58.50
364;DHT22;173;48.718;9.274;2023-06-22T11:00:54;32.90;60.20
364;DHT22;173;48.718;9.274;2023-06-22T11:03:26;32.90;60.80
364;DHT22;173;48.718;9.274;2023-06-22T11:05:58;32.90;61.10
364;DHT22;173;48.718;9.274;2023-06-22T11:08:31;33.00;60.30
364;DHT22;173;48.718;9.274;2023-06-22T11:11:02;33.30;58.90
364;DHT22;173;48.718;9.274;2023-06-22T11:13:34;32.70;58.40
364;DHT22;173;48.718;9.274;2023-06-22T11:16:06;32.50;58.50
364;DHT22;173;48.718;9.274;2023-06-22T11:18:38;32.80;58.10
364;DHT22;173;48.718;9.274;2023-06-22T11:21:10;33.30;57.10
364;DHT22;173;48.718;9.274;2023-06-22T11:23:43;33.50;56.20
364;DHT22;173;48.718;9.274;2023-06-22T11:26:16;33.50;56.90
364;DHT22;173;48.718;9.274;2023-06-22T11:28:48;33.40;57.60
364;DHT22;173;48.718;9.274;2023-06-22T11:31:20;33.70;55.60
364;DHT22;173;48.718;9.274;2023-06-22T11:33:53;33.60;57.00
364;DHT22;173;48.718;9.274;2023-06-22T11:36:25;33.60;56.80
364;DHT22;173;48.718;9.274;2023-06-22T11:38:58;33.80;57.10
364;DHT22;173;48.718;9.274;2023-06-22T11:41:32;33.50;55.90
364;DHT22;173;48.718;9.274;2023-06-22T11:44:04;33.70;56.00
364;DHT22;173;48.718;9.274;2023-06-22T11:46:36;33.70;56.60
364;DHT22;173;48.718;9.274;2023-06-22T11:49:09;33.50;57.30
364;DHT22;173;48.718;9.274;2023-06-22T11:51:41;33.80;59.10
364;DHT22;173;48.718;9.274;2023-06-22T11:54:13;33.90;55.70
364;DHT22;173;48.718;9.274;2023-06-22T11:56:45;33.70;56.70
364;DHT22;173;48.718;9.274;2023-06-22T11:59:17;33.60;57.60
364;DHT22;173;48.718;9.274;2023-06-22T12:01:49;33.70;56.40
364;DHT22;173;48.718;9.274;2023-06-22T12:04:21;33.60;54.90
364;DHT22;173;48.718;9.274;2023-06-22T12:06:54;33.60;56.50
364;DHT22;173;48.718;9.274;2023-06-22T12:09:26;33.90;55.20
364;DHT22;173;48.718;9.274;2023-06-22T12:11:58;34.00;54.80
364;DHT22;173;48.718;9.274;2023-06-22T12:14:30;34.00;54.10
364;DHT22;173;48.718;9.274;2023-06-22T12:17:02;33.80;54.30
364;DHT22;173;48.718;9.274;2023-06-22T12:19:34;33.70;55.30
364;DHT22;173;48.718;9.274;2023-06-22T12:22:07;33.50;54.60
364;DHT22;173;48.718;9.274;2023-06-22T12:24:38;33.80;54.40
364;DHT22;173;48.718;9.274;2023-06-22T12:27:10;34.00;53.20
364;DHT22;173;48.718;9.274;2023-06-22T12:29:46;34.10;53.40
364;DHT22;173;48.718;9.274;2023-06-22T12:32:18;33.70;54.00
364;DHT22;173;48.718;9.274;2023-06-22T12:34:51;33.50;54.20
364;DHT22;173;48.718;9.274;2023-06-22T12:37:23;33.20;54.10
364;DHT22;173;48.718;9.274;2023-06-22T12:39:56;33.10;53.90
364;DHT22;173;48.718;9.274;2023-06-22T12:42:28;32.80;54.10
364;DHT22;173;48.718;9.274;2023-06-22T12:45:00;32.60;53.50
364;DHT22;173;48.718;9.274;2023-06-22T12:47:32;32.30;55.30
364;DHT22;173;48.718;9.274;2023-06-22T12:50:05;32.20;56.80
364;DHT22;173;48.718;9.274;2023-06-22T12:52:39;32.20;57.70
364;DHT22;173;48.718;9.274;2023-06-22T12:55:11;32.10;57.90
364;DHT22;173;48.718;9.274;2023-06-22T12:57:43;32.20;58.70
364;DHT22;173;48.718;9.274;2023-06-22T13:00:17;32.40;58.60
364;DHT22;173;48.718;9.274;2023-06-22T13:02:50;32.60;58.80
364;DHT22;173;48.718;9.274;2023-06-22T13:05:22;32.70;58.40
364;DHT22;173;48.718;9.274;2023-06-22T13:07:54;32.60;58.70
364;DHT22;173;48.718;9.274;2023-06-22T14:52:55;32.70;58.10
364;DHT22;173;48.718;9.274;2023-06-22T14:55:35;36.40;45.60
364;DHT22;173;48.718;9.274;2023-06-22T14:58:09;36.70;42.00
364;DHT22;173;48.718;9.274;2023-06-22T15:00:41;36.30;43.00
364;DHT22;173;48.718;9.274;2023-06-22T15:03:13;36.30;42.40
364;DHT22;173;48.718;9.274;2023-06-22T15:12:09;35.50;40.50
364;DHT22;173;48.718;9.274;2023-06-22T15:14:44;35.20;41.00
364;DHT22;173;48.718;9.274;2023-06-22T15:17:16;35.10;40.70
364;DHT22;173;48.718;9.274;2023-06-22T15:19:48;35.10;41.10
364;DHT22;173;48.718;9.274;2023-06-22T15:22:20;35.30;40.90
364;DHT22;173;48.718;9.274;2023-06-22T15:24:52;34.90;41.30
364;DHT22;173;48.718;9.274;2023-06-22T15:27:26;34.80;41.10
364;DHT22;173;48.718;9.274;2023-06-22T15:29:58;34.90;40.10
364;DHT22;173;48.718;9.274;2023-06-22T15:32:31;34.80;40.70
364;DHT22;173;48.718;9.274;2023-06-22T15:35:03;34.60;40.80
364;DHT22;173;48.718;9.274;2023-06-22T15:37:35;34.50;40.70
364;DHT22;173;48.718;9.274;2023-06-22T15:40:08;34.00;41.70
364;DHT22;173;48.718;9.274;2023-06-22T15:42:40;33.30;42.90
364;DHT22;173;48.718;9.274;2023-06-22T15:45:13;33.00;42.90
364;DHT22;173;48.718;9.274;2023-06-22T15:47:45;32.80;43.20
364;DHT22;173;48.718;9.274;2023-06-22T15:50:17;32.80;43.60
364;DHT22;173;48.718;9.274;2023-06-22T15:52:52;32.80;43.30
364;DHT22;173;48.718;9.274;2023-06-22T15:55:24;33.20;42.90
364;DHT22;173;48.718;9.274;2023-06-22T15:57:57;33.80;43.00
364;DHT22;173;48.718;9.274;2023-06-22T16:00:29;33.90;41.70
364;DHT22;173;48.718;9.274;2023-06-22T16:03:01;33.70;42.20
364;DHT22;173;48.718;9.274;2023-06-22T16:05:33;33.30;42.60
364;DHT22;173;48.718;9.274;2023-06-22T16:08:10;33.00;42.90
364;DHT22;173;48.718;9.274;2023-06-22T16:10:42;32.40;43.40
364;DHT22;173;48.718;9.274;2023-06-22T16:13:14;32.00;44.70
364;DHT22;173;48.718;9.274;2023-06-22T16:15:46;31.90;45.30
364;DHT22;173;48.718;9.274;2023-06-22T16:18:18;31.70;45.70
364;DHT22;173;48.718;9.274;2023-06-22T16:20:49;31.70;45.90
364;DHT22;173;48.718;9.274;2023-06-22T16:23:21;31.60;46.10
364;DHT22;173;48.718;9.274;2023-06-22T16:25:53;31.60;46.80
364;DHT22;173;48.718;9.274;2023-06-22T16:28:25;31.60;46.70
364;DHT22;173;48.718;9.274;2023-06-22T16:30:57;31.40;47.40
364;DHT22;173;48.718;9.274;2023-06-22T16:33:29;31.40;47.00
364;DHT22;173;48.718;9.274;2023-06-22T16:36:01;31.20;46.60
364;DHT22;173;48.718;9.274;2023-06-22T16:38:33;31.10;46.70
364;DHT22;173;48.718;9.274;2023-06-22T16:41:05;30.90;47.00
364;DHT22;173;48.718;9.274;2023-06-22T16:46:17;30.90;47.50
364;DHT22;173;48.718;9.274;2023-06-22T16:48:53;31.00;47.20
364;DHT22;173;48.718;9.274;2023-06-22T16:51:25;31.00;47.80
364;DHT22;173;48.718;9.274;2023-06-22T16:53:57;30.70;47.40
364;DHT22;173;48.718;9.274;2023-06-22T16:56:29;30.70;47.50
364;DHT22;173;48.718;9.274;2023-06-22T16:59:02;30.60;47.70
364;DHT22;173;48.718;9.274;2023-06-22T17:01:34;30.30;47.40
364;DHT22;173;48.718;9.274;2023-06-22T17:04:11;30.20;47.90
364;DHT22;173;48.718;9.274;2023-06-22T17:06:47;30.30;48.20
364;DHT22;173;48.718;9.274;2023-06-22T17:09:28;30.80;47.70
364;DHT22;173;48.718;9.274;2023-06-22T17:12:01;30.70;47.70
364;DHT22;173;48.718;9.274;2023-06-22T17:14:34;30.20;48.40
364;DHT22;173;48.718;9.274;2023-06-22T17:17:08;29.90;49.40
364;DHT22;173;48.718;9.274;2023-06-22T17:19:46;29.90;50.00
364;DHT22;173;48.718;9.274;2023-06-22T17:22:20;29.90;49.90
364;DHT22;173;48.718;9.274;2023-06-22T17:24:52;29.80;49.80
364;DHT22;173;48.718;9.274;2023-06-22T17:27:30;29.90;50.30
364;DHT22;173;48.718;9.274;2023-06-22T17:30:12;30.00;50.10
364;DHT22;173;48.718;9.274;2023-06-22T17:32:58;29.90;50.40
364;DHT22;173;48.718;9.274;2023-06-22T17:35:33;29.80;50.00
364;DHT22;173;48.718;9.274;2023-06-22T17:38:23;29.50;49.00
